createdAt,value
2023-02-22T00:00:40.547Z,2.75
2023-02-22T00:04:40.561Z,3.45
2023-02-22T00:08:40.559Z,3.25
2023-02-22T00:12:40.182Z,2.75
2023-02-22T00:16:39.543Z,3.75
2023-02-22T00:20:40.792Z,3.7
2023-02-22T00:24:40.554Z,4.05
2023-02-22T00:28:41.130Z,4.35
2023-02-22T00:32:40.728Z,4.03
2023-02-22T00:36:40.564Z,3.5
2023-02-22T00:40:40.500Z,3.8
2023-02-22T00:44:40.864Z,3.17
2023-02-22T00:48:40.472Z,8.13
2023-02-22T00:52:40.652Z,3.05
2023-02-22T00:56:40.568Z,2.9
2023-02-22T01:00:40.739Z,2.4
2023-02-22T01:04:40.594Z,2.9
2023-02-22T01:08:40.494Z,3.95
2023-02-22T01:12:40.568Z,3.4
2023-02-22T01:16:40.692Z,3.9
2023-02-22T01:20:40.591Z,3.5
2023-02-22T01:24:41.199Z,3.03
2023-02-22T01:28:40.434Z,3.8
2023-02-22T01:32:40.776Z,3.17
2023-02-22T01:36:40.498Z,3.37
2023-02-22T01:40:40.939Z,4.43
2023-02-22T01:44:40.562Z,3.58
2023-02-22T01:48:40.558Z,3.4
2023-02-22T01:52:40.515Z,3.2
2023-02-22T01:56:40.505Z,3.03
2023-02-22T02:00:41.241Z,3.75
2023-02-22T02:04:40.591Z,3.37
2023-02-22T02:08:40.530Z,3.22
2023-02-22T02:12:40.600Z,3.33
2023-02-22T02:16:41.408Z,3.17
2023-02-22T02:20:40.523Z,3
2023-02-22T02:24:40.992Z,4.03
2023-02-22T02:28:40.608Z,4.87
2023-02-22T02:32:40.785Z,3.22
2023-02-22T02:36:40.732Z,6.1
2023-02-22T02:40:41.263Z,7.37
2023-02-22T02:44:40.578Z,4.6
2023-02-22T02:48:40.649Z,4.55
2023-02-22T02:52:40.738Z,4.18
2023-02-22T02:56:40.600Z,2.4
2023-02-22T03:00:40.518Z,3.97
2023-02-22T03:04:40.536Z,3.08
2023-02-22T03:08:40.561Z,4.47
2023-02-22T03:12:40.768Z,4.72
2023-02-22T03:16:41.212Z,4.45
2023-02-22T03:20:40.526Z,2.67
2023-02-22T03:24:40.630Z,3.67
2023-02-22T03:28:40.604Z,2.83
2023-02-22T03:32:40.534Z,3.37
2023-02-22T03:36:40.550Z,2.85
2023-02-22T03:40:40.551Z,3.33
2023-02-22T03:44:40.479Z,2.7
2023-02-22T03:48:40.579Z,3.4
2023-02-22T03:52:40.524Z,3.17
2023-02-22T03:56:40.392Z,3.4
2023-02-22T04:00:40.561Z,4.95
2023-02-22T04:04:40.520Z,6.25
2023-02-22T04:08:40.523Z,3.03
2023-02-22T04:12:40.061Z,3.25
2023-02-22T04:16:39.250Z,3.25
2023-02-22T04:20:40.855Z,3.4
2023-02-22T04:24:40.546Z,3.33
2023-02-22T04:28:40.574Z,2.47
2023-02-22T04:32:40.953Z,2.72
2023-02-22T04:36:40.453Z,3.53
2023-02-22T04:40:40.569Z,3.72
2023-02-22T04:44:41.278Z,3.42
2023-02-22T04:48:40.890Z,3.03
2023-02-22T04:52:41.263Z,3.1
2023-02-22T04:56:40.462Z,3.5
2023-02-22T05:00:40.677Z,3.1
2023-02-22T05:04:40.517Z,3.4
2023-02-22T05:08:40.506Z,3.58
2023-02-22T05:12:40.539Z,3.37
2023-02-22T05:16:40.640Z,3.35
2023-02-22T05:20:40.676Z,4.4
2023-02-22T05:24:40.519Z,3.45
2023-02-22T05:28:40.329Z,4.68
2023-02-22T05:32:39.571Z,3.67
2023-02-22T05:36:40.641Z,3.87
2023-02-22T05:40:40.647Z,4.12
2023-02-22T05:44:40.885Z,3.5
2023-02-22T05:48:40.620Z,3.47
2023-02-22T05:52:39.451Z,3.33
2023-02-22T05:56:40.648Z,3.72
2023-02-22T06:00:40.576Z,3.8
2023-02-22T06:04:41.300Z,4.65
2023-02-22T06:08:40.497Z,3.28
2023-02-22T06:12:40.516Z,3.7
2023-02-22T06:16:40.627Z,4.4
2023-02-22T06:20:39.970Z,3.5
2023-02-22T06:24:40.346Z,3.62
2023-02-22T06:28:40.331Z,4.03
2023-02-22T06:32:40.499Z,4.65
2023-02-22T06:36:40.926Z,5.57
2023-02-22T06:40:40.291Z,4.62
2023-02-22T06:44:40.549Z,4.35
2023-02-22T06:48:41.177Z,8.95
2023-02-22T06:52:40.522Z,4.65
2023-02-22T06:56:40.558Z,5.97
2023-02-22T07:00:40.387Z,4.53
2023-02-22T07:04:43.252Z,5.7
2023-02-22T07:08:40.551Z,5.85
2023-02-22T07:12:40.635Z,5.1
2023-02-22T07:16:40.327Z,5.18
2023-02-22T07:20:40.564Z,4.85
2023-02-22T07:24:40.864Z,5.57
2023-02-22T07:28:40.612Z,5.6
2023-02-22T07:32:39.566Z,5.97
2023-02-22T07:36:40.646Z,10.05
2023-02-22T07:40:40.595Z,4.87
2023-02-22T07:44:40.719Z,4.87
2023-02-22T07:48:40.740Z,5.22
2023-02-22T07:52:39.228Z,4.87
2023-02-22T07:56:40.361Z,4.45
2023-02-22T08:00:40.711Z,6.22
2023-02-22T08:04:40.485Z,4.35
2023-02-22T08:08:40.431Z,4.32
2023-02-22T08:12:40.672Z,4.28
2023-02-22T08:16:40.713Z,4.35
2023-02-22T08:20:40.934Z,4.87
2023-02-22T08:24:39.635Z,3.97
2023-02-22T08:28:40.647Z,4.32
2023-02-22T08:32:40.483Z,5.18
2023-02-22T08:36:40.795Z,7.12
2023-02-22T08:40:40.639Z,4.87
2023-02-22T08:44:40.602Z,4.43
2023-02-22T08:48:40.714Z,4.75
2023-02-22T08:52:40.476Z,4.5
2023-02-22T08:56:40.697Z,4.22
2023-02-22T09:00:40.740Z,5.75
2023-02-22T09:04:40.891Z,3.65
2023-02-22T09:08:40.556Z,4.07
2023-02-22T09:12:40.967Z,4.4
2023-02-22T09:16:40.838Z,4.47
2023-02-22T09:20:40.857Z,4.32
2023-02-22T09:24:40.538Z,3.55
2023-02-22T09:28:40.499Z,4
2023-02-22T09:32:40.572Z,3.8
2023-02-22T09:36:40.507Z,4.55
2023-02-22T09:40:40.565Z,2.78
2023-02-22T09:44:40.457Z,4.9
2023-02-22T09:48:40.699Z,3.58
2023-02-22T09:52:40.450Z,2.9
2023-02-22T09:56:41.158Z,3.25
2023-02-22T10:00:40.714Z,3.55
2023-02-22T10:04:40.296Z,3.3
2023-02-22T10:08:40.735Z,3.92
2023-02-22T10:12:40.574Z,5.15
2023-02-22T10:16:40.705Z,3.4
2023-02-22T10:20:40.611Z,3.8
2023-02-22T10:24:40.600Z,3.45
2023-02-22T10:28:40.443Z,4.8
2023-02-22T10:32:40.736Z,3.58
2023-02-22T10:36:40.234Z,4.43
2023-02-22T10:40:41.172Z,3.45
2023-02-22T10:44:40.381Z,3.5
2023-02-22T10:48:41.029Z,2.92
2023-02-22T10:52:40.589Z,3.45
2023-02-22T10:56:40.754Z,4.2
2023-02-22T11:00:39.966Z,4.03
2023-02-22T11:04:40.571Z,3.37
2023-02-22T11:08:40.919Z,3.15
2023-02-22T11:12:40.653Z,3.62
2023-02-22T11:16:40.568Z,3.72
2023-02-22T11:20:40.554Z,3.97
2023-02-22T11:24:49.005Z,3.83
2023-02-22T11:28:41.065Z,4.07
2023-02-22T11:32:40.613Z,2.75
2023-02-22T11:36:40.603Z,2.67
2023-02-22T11:40:40.761Z,2.53
2023-02-22T11:44:40.514Z,2.35
2023-02-22T11:48:40.441Z,3.03
2023-02-22T11:52:40.677Z,2.8
2023-02-22T11:56:40.736Z,2.85
2023-02-22T12:00:40.645Z,2.95
2023-02-22T12:04:40.707Z,3.5
2023-02-22T12:08:40.719Z,2.12
2023-02-22T12:12:41.297Z,2.72
2023-02-22T12:16:40.630Z,3.25
2023-02-22T12:20:39.293Z,3.47
2023-02-22T12:24:40.485Z,3.15
2023-02-22T12:28:40.589Z,3.12
2023-02-22T12:32:40.567Z,3.92
2023-02-22T12:36:39.383Z,3.3
2023-02-22T12:40:40.270Z,3.3
2023-02-22T12:44:40.528Z,3.65
2023-02-22T12:48:40.606Z,3.25
2023-02-22T12:52:40.525Z,3.25
2023-02-22T12:56:40.550Z,3.3
2023-02-22T13:00:40.706Z,3.72
2023-02-22T13:04:40.525Z,2.67
2023-02-22T13:08:40.587Z,2.72
2023-02-22T13:12:40.605Z,3.92
2023-02-22T13:16:40.644Z,2.75
2023-02-22T13:20:40.596Z,2.4
2023-02-22T13:24:41.717Z,3.8
2023-02-22T13:28:39.443Z,3.12
2023-02-22T13:32:40.413Z,2.5
2023-02-22T13:36:40.647Z,3.4
2023-02-22T13:40:40.794Z,3.4
2023-02-22T13:44:40.471Z,2.75
2023-02-22T13:48:40.862Z,2.62
2023-02-22T13:52:40.894Z,2.83
2023-02-22T13:56:40.653Z,2.65
2023-02-22T14:00:40.563Z,3.1
2023-02-22T14:04:40.377Z,2.1
2023-02-22T14:08:42.016Z,2.58
2023-02-22T14:12:40.688Z,1.98
2023-02-22T14:16:40.314Z,2.85
2023-02-22T14:20:40.568Z,3.35
2023-02-22T14:24:40.418Z,2.83
2023-02-22T14:28:39.495Z,2.33
2023-02-22T14:32:40.935Z,3.25
2023-02-22T14:36:40.713Z,2.67
2023-02-22T14:40:40.570Z,2.97
2023-02-22T14:44:40.611Z,1.98
2023-02-22T14:48:40.843Z,3.2
2023-02-22T14:52:40.679Z,4.5
2023-02-22T14:56:40.345Z,2.17
2023-02-22T15:00:40.844Z,2.62
2023-02-22T15:04:40.686Z,3.2
2023-02-22T15:08:40.703Z,2.65
2023-02-22T15:12:40.836Z,2.2
2023-02-22T15:16:41.395Z,2.22
2023-02-22T15:20:40.403Z,2.42
2023-02-22T15:24:40.798Z,2.78
2023-02-22T15:28:40.293Z,2.08
2023-02-22T15:32:53.423Z,2.85
2023-02-22T15:36:40.745Z,2.67
2023-02-22T15:40:40.631Z,2.87
2023-02-22T15:44:40.654Z,2.9
2023-02-22T15:48:40.555Z,4.37
2023-02-22T15:52:40.653Z,3.45
2023-02-22T15:56:40.499Z,2.42
2023-02-22T16:00:40.783Z,3.17
2023-02-22T16:04:42.133Z,2.92
2023-02-22T16:08:52.819Z,2.95
2023-02-22T16:12:40.505Z,2.83
2023-02-22T16:16:40.492Z,4.57
2023-02-22T16:20:40.637Z,3.15
2023-02-22T16:24:40.422Z,3.47
2023-02-22T16:28:40.576Z,3.15
2023-02-22T16:32:40.754Z,3.6
2023-02-22T16:36:40.547Z,2.65
2023-02-22T16:40:40.507Z,2.87
2023-02-22T16:44:40.710Z,3
2023-02-22T16:48:40.364Z,2.55
2023-02-22T16:52:40.765Z,3.92
2023-02-22T16:56:40.469Z,4.15
2023-02-22T17:00:39.760Z,3.17
2023-02-22T17:04:40.853Z,3.92
2023-02-22T17:08:40.606Z,3.87
2023-02-22T17:12:40.839Z,2.75
2023-02-22T17:16:40.653Z,2.5
2023-02-22T17:20:40.596Z,3.22
2023-02-22T17:24:40.540Z,3.65
2023-02-22T17:28:40.481Z,3.5
2023-02-22T17:32:40.230Z,4.12
2023-02-22T17:36:40.588Z,3.62
2023-02-22T17:40:40.645Z,4.35
2023-02-22T17:44:40.652Z,4.37
2023-02-22T17:48:40.323Z,4.9
2023-02-22T17:52:41.193Z,5.05
2023-02-22T17:56:40.633Z,5.93
2023-02-22T18:00:40.762Z,4.57
2023-02-22T18:04:40.693Z,4.7
2023-02-22T18:08:40.591Z,5.22
2023-02-22T18:12:40.968Z,4.93
2023-02-22T18:16:40.746Z,7.25
2023-02-22T18:20:40.839Z,5.25
2023-02-22T18:24:40.640Z,4.8
2023-02-22T18:28:40.653Z,5.62
2023-02-22T18:32:40.782Z,5.12
2023-02-22T18:36:40.608Z,4.03
2023-02-22T18:40:40.628Z,4.68
2023-02-22T18:44:40.649Z,4.28
2023-02-22T18:48:40.748Z,3.87
2023-02-22T18:52:40.621Z,3.87
2023-02-22T18:56:41.015Z,4.25
2023-02-22T19:00:40.673Z,4.82
2023-02-22T19:04:40.600Z,4.12
2023-02-22T19:08:41.278Z,5.35
2023-02-22T19:12:40.924Z,4.93
2023-02-22T19:16:40.528Z,4.5
2023-02-22T19:24:40.310Z,5.47
2023-02-22T19:28:40.640Z,4.72
2023-02-22T19:32:40.642Z,5
2023-02-22T19:36:40.697Z,5.1
2023-02-22T19:40:39.773Z,6.37
2023-02-22T19:44:41.026Z,4.95
2023-02-22T19:48:40.627Z,5.1
2023-02-22T19:52:40.553Z,4.82
2023-02-22T19:56:41.024Z,4.97
2023-02-22T20:00:40.617Z,5.5
2023-02-22T20:04:40.632Z,6.37
2023-02-22T20:08:40.500Z,4.68
2023-02-22T20:12:40.524Z,5.28
2023-02-22T20:16:40.560Z,6.07
2023-02-22T20:20:40.571Z,7.17
2023-02-22T20:24:40.486Z,7.27
2023-02-22T20:28:40.601Z,4.82
2023-02-22T20:32:41.266Z,5.72
2023-02-22T20:36:40.643Z,5.55
2023-02-22T20:40:40.344Z,5.22
2023-02-22T20:44:40.457Z,7.27
2023-02-22T20:48:40.583Z,5.33
2023-02-22T20:52:40.632Z,5.5
2023-02-22T20:56:41.066Z,6.63
2023-02-22T21:00:41.165Z,7
2023-02-22T21:04:40.592Z,6.57
2023-02-22T21:08:40.558Z,5.13
2023-02-22T21:12:40.578Z,5.7
2023-02-22T21:16:40.570Z,6.07
2023-02-22T21:20:40.540Z,6.3
2023-02-22T21:24:40.698Z,6.57
2023-02-22T21:28:51.055Z,7.67
2023-02-22T21:32:40.925Z,6.6
2023-02-22T21:36:40.509Z,6.73
2023-02-22T21:40:40.622Z,6.7
2023-02-22T21:44:40.463Z,6.53
2023-02-22T21:48:40.467Z,7.43
2023-02-22T21:52:40.558Z,5.83
2023-02-22T21:56:40.337Z,8.03
2023-02-22T22:00:40.496Z,8.2
2023-02-22T22:04:40.537Z,6.53
2023-02-22T22:08:40.530Z,5.9
2023-02-22T22:12:41.033Z,6
2023-02-22T22:16:40.556Z,5.47
2023-02-22T22:20:40.682Z,5.63
2023-02-22T22:24:40.484Z,5.37
2023-02-22T22:28:39.861Z,6.93
2023-02-22T22:32:40.601Z,7.07
2023-02-22T22:36:40.256Z,6.57
2023-02-22T22:40:40.912Z,7
2023-02-22T22:44:40.585Z,6.4
2023-02-22T22:48:40.696Z,6.33
2023-02-22T22:52:40.451Z,6.27
2023-02-22T22:56:40.284Z,6.33
2023-02-22T23:00:39.795Z,7.2
2023-02-22T23:04:40.906Z,5.73
2023-02-22T23:08:40.594Z,6.4
2023-02-22T23:12:40.596Z,8.2
2023-02-22T23:16:40.621Z,8.23
2023-02-22T23:20:40.587Z,7.73
2023-02-22T23:24:40.627Z,7.63
2023-02-22T23:28:40.496Z,7.97
2023-02-22T23:32:40.713Z,6.93
2023-02-22T23:36:40.469Z,7.9
2023-02-22T23:40:40.525Z,8.23
2023-02-22T23:44:40.823Z,7.5
2023-02-22T23:48:40.651Z,8.77
2023-02-22T23:52:40.945Z,8.57
2023-02-22T23:56:40.556Z,7.63
